createdAt,value
2024-03-12T00:03:13.241Z,26.00
2024-03-12T00:08:15.482Z,22.37
2024-03-12T00:13:17.415Z,23.53
2024-03-12T00:18:27.075Z,21.40
2024-03-12T00:23:30.198Z,25.97
2024-03-12T00:28:34.460Z,19.17
2024-03-12T00:33:36.455Z,21.47
2024-03-12T00:38:38.470Z,19.43
2024-03-12T00:43:41.067Z,20.07
2024-03-12T00:48:48.269Z,18.90
2024-03-12T00:53:50.288Z,20.00
2024-03-12T00:58:53.250Z,19.90
2024-03-12T01:03:57.524Z,18.93
2024-03-12T01:09:07.536Z,17.50
2024-03-12T01:14:09.612Z,17.80
2024-03-12T01:19:13.927Z,17.47
2024-03-12T01:24:18.020Z,16.07
2024-03-12T01:29:20.802Z,19.63
2024-03-12T01:34:24.730Z,23.90
2024-03-12T01:39:27.258Z,29.60
2024-03-12T01:44:31.382Z,30.63
2024-03-12T01:49:35.286Z,30.50
2024-03-12T01:54:38.518Z,34.37
2024-03-12T01:59:40.659Z,36.00
2024-03-12T02:04:42.700Z,32.53
2024-03-12T02:09:50.438Z,32.77
2024-03-12T02:14:52.787Z,32.27
2024-03-12T02:19:54.560Z,27.50
2024-03-12T02:24:56.482Z,31.20
2024-03-12T02:29:58.501Z,32.53
2024-03-12T02:35:00.394Z,27.00
2024-03-12T02:40:02.251Z,25.17
2024-03-12T02:45:07.409Z,24.33
2024-03-12T02:50:14.697Z,24.50
2024-03-12T02:55:16.585Z,24.40
2024-03-12T03:00:20.876Z,22.90
2024-03-12T03:05:22.748Z,24.20
2024-03-12T03:10:26.900Z,23.77
2024-03-12T03:15:28.750Z,22.00
2024-03-12T03:20:30.598Z,24.20
2024-03-12T03:25:32.342Z,26.03
2024-03-12T03:30:36.683Z,25.67
2024-03-12T03:35:41.627Z,117.13
2024-03-12T03:40:43.337Z,34.97
2024-03-12T03:45:47.306Z,29.00
2024-03-12T03:50:49.082Z,28.73
2024-03-12T03:55:55.526Z,31.30
2024-03-12T04:00:57.531Z,33.20
2024-03-12T04:05:59.329Z,32.07
2024-03-12T04:11:04.602Z,38.23
2024-03-12T04:16:26.755Z,38.03
2024-03-12T04:21:53.226Z,36.03
2024-03-12T04:27:17.431Z,39.63
2024-03-12T04:32:40.723Z,38.00
2024-03-12T04:37:42.717Z,41.33
2024-03-12T04:42:47.039Z,37.77
2024-03-12T04:47:50.217Z,41.40
2024-03-12T04:52:52.152Z,46.13
2024-03-12T04:57:54.007Z,41.83
2024-03-12T05:02:55.928Z,40.03
2024-03-12T05:08:00.177Z,41.83
2024-03-12T05:13:04.777Z,40.73
2024-03-12T05:18:06.996Z,40.77
2024-03-12T05:23:11.624Z,41.50
2024-03-12T05:28:13.871Z,37.17
2024-03-12T05:33:21.017Z,37.80
2024-03-12T05:38:31.783Z,38.87
2024-03-12T05:43:52.196Z,40.17
2024-03-12T05:48:56.316Z,41.40
2024-03-12T05:54:00.448Z,42.87
2024-03-12T05:59:02.255Z,39.10
2024-03-12T06:04:06.829Z,43.70
2024-03-12T06:09:11.262Z,45.27
2024-03-12T06:14:15.345Z,44.47
2024-03-12T06:19:20.555Z,47.07
2024-03-12T06:24:22.432Z,46.80
2024-03-12T06:29:24.672Z,47.97
2024-03-12T06:34:29.815Z,48.13
2024-03-12T06:39:37.467Z,44.57
2024-03-12T06:44:43.845Z,49.90
2024-03-12T06:49:47.894Z,52.53
2024-03-12T06:54:51.683Z,51.60
2024-03-12T06:59:56.578Z,53.63
2024-03-12T07:05:04.469Z,53.67
2024-03-12T07:10:12.763Z,50.27
2024-03-12T07:15:19.455Z,44.50
2024-03-12T07:20:23.079Z,39.27
2024-03-12T07:25:27.410Z,39.70
2024-03-12T07:30:29.240Z,40.47
2024-03-12T07:35:35.565Z,41.37
2024-03-12T07:40:42.457Z,38.57
2024-03-12T07:45:49.238Z,38.57
2024-03-12T07:50:51.040Z,42.97
2024-03-12T07:55:57.812Z,37.97
2024-03-12T08:01:02.557Z,37.33
2024-03-12T08:06:05.287Z,38.73
2024-03-12T08:11:07.248Z,38.40
2024-03-12T08:16:09.180Z,37.90
2024-03-12T08:21:11.071Z,38.53
2024-03-12T08:26:13.493Z,40.03
2024-03-12T08:31:23.729Z,43.87
2024-03-12T08:36:38.088Z,42.17
2024-03-12T08:41:43.555Z,41.37
2024-03-12T08:46:46.190Z,42.83
2024-03-12T08:51:47.984Z,42.50
2024-03-12T08:56:54.783Z,40.93
2024-03-12T09:02:01.216Z,41.73
2024-03-12T09:07:03.766Z,43.60
2024-03-12T09:12:09.407Z,39.83
2024-03-12T09:17:11.199Z,40.47
2024-03-12T09:22:15.271Z,45.50
2024-03-12T09:27:20.773Z,40.63
2024-03-12T09:32:23.005Z,44.67
2024-03-12T09:37:28.581Z,39.57
2024-03-12T09:42:37.217Z,44.60
2024-03-12T09:47:42.058Z,45.13
2024-03-12T09:52:47.485Z,42.63
2024-03-12T09:57:52.606Z,37.70
2024-03-12T10:02:56.452Z,45.03
2024-03-12T10:08:18.027Z,40.87
2024-03-12T10:13:22.326Z,40.80
2024-03-12T10:18:40.164Z,46.10
2024-03-12T10:23:42.332Z,47.20
2024-03-12T10:28:52.238Z,44.03
2024-03-12T10:33:57.511Z,47.63
2024-03-12T10:38:59.439Z,44.93
2024-03-12T10:44:13.917Z,45.88
2024-03-12T10:49:18.834Z,50.13
2024-03-12T10:54:23.871Z,48.23
2024-03-12T10:59:29.059Z,46.08
2024-03-12T11:04:33.993Z,44.85
2024-03-12T11:09:38.312Z,46.88
2024-03-12T11:14:43.181Z,47.28
2024-03-12T11:19:45.608Z,48.95
2024-03-12T11:24:49.909Z,48.47
2024-03-12T11:30:05.429Z,56.42
2024-03-12T11:35:28.710Z,56.70
2024-03-12T11:40:41.225Z,58.67
2024-03-12T11:45:54.242Z,65.28
2024-03-12T11:50:57.176Z,64.97
2024-03-12T11:56:09.080Z,56.67
2024-03-12T12:01:22.852Z,65.67
2024-03-12T12:06:25.605Z,78.80
2024-03-12T12:11:27.534Z,73.50
2024-03-12T12:16:36.511Z,75.83
2024-03-12T12:21:39.696Z,78.50
2024-03-12T12:26:44.994Z,79.50
2024-03-12T12:31:47.150Z,80.70
2024-03-12T12:36:54.357Z,96.37
2024-03-12T12:41:58.217Z,92.03
2024-03-12T12:46:59.913Z,99.73
2024-03-12T12:52:04.988Z,97.77
2024-03-12T12:57:10.179Z,97.57
2024-03-12T13:02:19.838Z,88.97
2024-03-12T13:07:33.297Z,93.23
2024-03-12T13:12:36.124Z,97.27
2024-03-12T13:17:40.735Z,84.87
2024-03-12T13:22:43.741Z,90.40
2024-03-12T13:27:48.350Z,93.10
2024-03-12T13:32:50.314Z,78.67
2024-03-12T13:37:52.108Z,85.57
2024-03-12T13:42:54.026Z,76.50
2024-03-12T13:47:56.427Z,84.30
2024-03-12T13:53:00.963Z,76.80
2024-03-12T13:58:04.421Z,63.80
2024-03-12T14:03:06.218Z,70.40
2024-03-12T14:08:08.049Z,66.80
2024-03-12T14:13:11.348Z,63.33
2024-03-12T14:18:13.277Z,60.03
2024-03-12T14:23:15.546Z,60.53
2024-03-12T14:28:20.934Z,50.27
2024-03-12T14:33:27.309Z,57.07
2024-03-12T14:38:31.087Z,54.87
2024-03-12T14:43:34.177Z,51.90
2024-03-12T14:48:39.095Z,48.10
2024-03-12T14:53:45.393Z,43.00
2024-03-12T14:58:49.417Z,41.30
2024-03-12T15:03:51.905Z,34.40
2024-03-12T15:08:56.942Z,24.30
2024-03-12T15:13:58.716Z,22.27
2024-03-12T15:19:05.169Z,20.37
2024-03-12T15:24:08.200Z,22.03
2024-03-12T15:29:13.873Z,21.40
2024-03-12T15:34:15.824Z,20.60
2024-03-12T15:39:18.929Z,24.20
2024-03-12T15:44:23.060Z,22.13
2024-03-12T15:49:25.226Z,25.97
2024-03-12T15:54:29.611Z,32.77
2024-03-12T15:59:33.686Z,36.65
2024-03-12T16:04:35.484Z,33.78
2024-03-12T16:09:37.398Z,31.97
2024-03-12T16:14:41.741Z,40.63
2024-03-12T16:19:43.464Z,37.03
2024-03-12T16:24:47.535Z,34.97
2024-03-12T16:29:49.586Z,33.60
2024-03-12T16:34:51.408Z,35.30
2024-03-12T16:39:55.702Z,37.95
2024-03-12T16:45:00.516Z,41.50
2024-03-12T16:50:05.964Z,47.07
2024-03-12T16:55:09.032Z,37.73
2024-03-12T17:00:15.081Z,45.10
2024-03-12T17:05:23.524Z,45.67
2024-03-12T17:10:26.623Z,52.33
2024-03-12T17:15:28.963Z,51.57
2024-03-12T17:20:34.467Z,46.28
2024-03-12T17:25:39.686Z,49.93
2024-03-12T17:30:42.690Z,44.00
2024-03-12T17:35:48.814Z,36.90
2024-03-12T17:40:55.712Z,37.40
2024-03-12T17:45:58.604Z,46.43
2024-03-12T17:51:04.184Z,42.60
2024-03-12T17:56:12.842Z,45.65
2024-03-12T18:01:14.899Z,52.70
2024-03-12T18:06:16.869Z,39.27
2024-03-12T18:11:22.062Z,42.33
2024-03-12T18:16:26.362Z,46.23
2024-03-12T18:21:28.725Z,47.17
2024-03-12T18:26:35.814Z,50.50
2024-03-12T18:31:39.951Z,50.50
2024-03-12T18:36:41.794Z,48.00
2024-03-12T18:41:44.648Z,55.37
2024-03-12T18:46:46.616Z,57.17
2024-03-12T18:51:48.788Z,51.13
2024-03-12T18:56:51.056Z,65.10
2024-03-12T19:02:07.320Z,60.67
2024-03-12T19:07:11.165Z,62.00
2024-03-12T19:12:16.183Z,58.33
2024-03-12T19:17:18.576Z,56.83
2024-03-12T19:22:21.370Z,66.80
2024-03-12T19:27:30.914Z,67.47
2024-03-12T19:32:39.563Z,61.37
2024-03-12T19:37:43.299Z,59.13
2024-03-12T19:42:50.086Z,72.03
2024-03-12T19:47:52.576Z,62.07
2024-03-12T19:52:56.363Z,63.07
2024-03-12T19:58:02.514Z,63.67
2024-03-12T20:03:07.456Z,57.57
2024-03-12T20:08:12.083Z,60.13
2024-03-12T20:13:14.609Z,57.20
2024-03-12T20:18:16.613Z,56.23
2024-03-12T20:23:18.401Z,53.40
2024-03-12T20:28:20.151Z,56.97
2024-03-12T20:33:23.286Z,56.70
2024-03-12T20:38:25.493Z,57.80
2024-03-12T20:43:28.683Z,55.37
2024-03-12T20:48:30.576Z,53.03
2024-03-12T20:53:34.944Z,69.87
2024-03-12T20:58:39.517Z,84.60
2024-03-12T21:03:49.820Z,73.20
2024-03-12T21:08:52.254Z,64.00
2024-03-12T21:13:59.104Z,62.80
2024-03-12T21:19:01.244Z,57.57
2024-03-12T21:24:05.435Z,56.67
2024-03-12T21:29:09.740Z,59.57
2024-03-12T21:34:14.060Z,68.13
2024-03-12T21:39:23.329Z,64.53
2024-03-12T21:44:28.761Z,62.97
2024-03-12T21:49:33.330Z,63.73
2024-03-12T21:54:37.388Z,60.03
2024-03-12T21:59:40.724Z,61.20
2024-03-12T22:04:42.434Z,63.10
2024-03-12T22:09:48.163Z,66.70
2024-03-12T22:14:52.169Z,64.73
2024-03-12T22:19:55.056Z,61.93
2024-03-12T22:24:59.226Z,67.97
2024-03-12T22:30:07.804Z,65.97
2024-03-12T22:35:09.857Z,69.30
2024-03-12T22:40:14.476Z,69.37
2024-03-12T22:45:16.605Z,66.20
2024-03-12T22:50:18.801Z,72.50
2024-03-12T22:55:21.818Z,72.53
2024-03-12T23:00:29.992Z,76.17
2024-03-12T23:05:36.175Z,70.77
2024-03-12T23:10:45.243Z,75.23
2024-03-12T23:15:50.300Z,82.83
2024-03-12T23:20:53.851Z,78.70
2024-03-12T23:25:55.745Z,84.37
2024-03-12T23:31:00.969Z,85.70
2024-03-12T23:36:03.106Z,85.03
2024-03-12T23:41:04.839Z,82.40
2024-03-12T23:46:09.656Z,90.73
2024-03-12T23:51:15.119Z,99.93
2024-03-12T23:56:16.973Z,95.47
